createdAt,value
2023-01-15T00:02:58.354Z,13.98
2023-01-15T00:08:00.127Z,14.68
2023-01-15T00:13:01.956Z,13.88
2023-01-15T00:18:04.320Z,13.85
2023-01-15T00:23:05.983Z,15.45
2023-01-15T00:28:07.605Z,13.52
2023-01-15T00:33:10.060Z,12.63
2023-01-15T00:38:11.707Z,11.80
2023-01-15T00:43:13.388Z,10.38
2023-01-15T00:48:15.089Z,12.43
2023-01-15T00:53:17.220Z,10.05
2023-01-15T00:58:18.894Z,10.68
2023-01-15T01:03:20.628Z,10.63
2023-01-15T01:08:22.320Z,13.88
2023-01-15T01:13:24.133Z,11.18
2023-01-15T01:18:26.210Z,12.40
2023-01-15T01:23:27.884Z,11.68
2023-01-15T01:28:29.723Z,11.77
2023-01-15T01:33:31.338Z,12.93
2023-01-15T01:38:33.080Z,10.75
2023-01-15T01:43:59.839Z,11.48
2023-01-15T01:49:09.452Z,8.98
2023-01-15T01:54:14.381Z,10.95
2023-01-15T01:59:19.559Z,11.32
2023-01-15T02:04:25.923Z,11.73
2023-01-15T02:09:28.683Z,9.38
2023-01-15T02:14:39.013Z,11.23
2023-01-15T02:19:59.340Z,10.40
2023-01-15T02:25:08.272Z,10.57
2023-01-15T02:30:34.196Z,10.38
2023-01-15T02:35:41.454Z,10.00
2023-01-15T02:40:49.675Z,13.20
2023-01-15T02:45:57.807Z,11.32
2023-01-15T02:51:14.362Z,12.55
2023-01-15T02:56:19.617Z,8.95
2023-01-15T03:01:31.529Z,10.52
2023-01-15T03:06:44.114Z,12.00
2023-01-15T03:11:55.358Z,10.10
2023-01-15T03:17:02.978Z,9.65
2023-01-15T03:22:18.261Z,10.40
2023-01-15T03:27:21.243Z,8.68
2023-01-15T03:32:29.172Z,9.45
2023-01-15T03:37:31.892Z,11.65
2023-01-15T03:42:45.615Z,9.80
2023-01-15T03:48:02.918Z,9.27
2023-01-15T03:53:14.672Z,7.72
2023-01-15T03:58:41.500Z,7.03
2023-01-15T04:03:48.618Z,8.35
2023-01-15T04:08:51.258Z,7.88
2023-01-15T04:13:54.595Z,8.00
2023-01-15T04:19:06.149Z,10.18
2023-01-15T04:24:10.536Z,7.15
2023-01-15T04:29:12.322Z,7.70
2023-01-15T04:34:13.999Z,8.15
2023-01-15T04:39:15.675Z,8.90
2023-01-15T04:44:17.366Z,8.75
2023-01-15T04:49:19.065Z,6.38
2023-01-15T04:54:22.617Z,7.45
2023-01-15T04:59:26.517Z,8.07
2023-01-15T05:04:28.375Z,6.90
2023-01-15T05:09:30.391Z,7.65
2023-01-15T05:14:32.139Z,5.68
2023-01-15T05:19:33.846Z,9.05
2023-01-15T05:24:35.539Z,8.35
2023-01-15T05:29:37.404Z,5.70
2023-01-15T05:34:39.061Z,5.55
2023-01-15T05:39:40.725Z,5.43
2023-01-15T05:44:42.564Z,8.15
2023-01-15T05:49:44.206Z,5.50
2023-01-15T05:54:46.101Z,6.07
2023-01-15T05:59:50.419Z,8.77
2023-01-15T06:04:52.072Z,5.13
2023-01-15T06:09:53.695Z,6.38
2023-01-15T06:14:55.331Z,6.13
2023-01-15T06:19:57.126Z,5.70
2023-01-15T06:24:58.883Z,5.15
2023-01-15T06:30:00.527Z,5.13
2023-01-15T06:35:02.400Z,7.72
2023-01-15T06:40:04.786Z,6.60
2023-01-15T06:45:25.419Z,5.97
2023-01-15T06:50:27.152Z,6.05
2023-01-15T06:55:28.755Z,4.57
2023-01-15T07:00:30.745Z,6.07
2023-01-15T07:05:32.447Z,6.50
2023-01-15T07:10:35.481Z,6.22
2023-01-15T07:15:40.240Z,5.00
2023-01-15T07:20:42.056Z,3.55
2023-01-15T07:25:43.701Z,6.18
2023-01-15T07:30:45.294Z,5.00
2023-01-15T07:35:47.078Z,6.78
2023-01-15T07:41:09.021Z,6.40
2023-01-15T07:46:30.431Z,4.93
2023-01-15T07:51:32.101Z,5.28
2023-01-15T07:56:34.146Z,7.28
2023-01-15T08:01:35.827Z,7.82
2023-01-15T08:06:37.736Z,8.70
2023-01-15T08:11:57.941Z,7.35
2023-01-15T08:16:59.776Z,5.85
2023-01-15T08:22:01.772Z,8.32
2023-01-15T08:27:03.718Z,7.00
2023-01-15T08:32:05.773Z,4.72
2023-01-15T08:37:07.550Z,7.90
2023-01-15T08:42:09.281Z,6.72
2023-01-15T08:47:10.879Z,5.28
2023-01-15T08:52:12.557Z,6.40
2023-01-15T08:57:14.432Z,5.18
2023-01-15T09:02:17.659Z,6.97
2023-01-15T09:07:19.417Z,6.05
2023-01-15T09:12:24.800Z,6.32
2023-01-15T09:17:26.444Z,6.53
2023-01-15T09:22:30.846Z,7.43
2023-01-15T09:27:34.390Z,6.60
2023-01-15T09:32:36.015Z,5.55
2023-01-15T09:37:37.688Z,7.45
2023-01-15T09:42:57.651Z,5.03
2023-01-15T09:48:05.350Z,6.18
2023-01-15T09:53:18.087Z,4.90
2023-01-15T09:58:24.836Z,6.03
2023-01-15T10:03:47.367Z,6.63
2023-01-15T10:08:50.771Z,8.43
2023-01-15T10:14:15.400Z,6.88
2023-01-15T10:19:17.077Z,6.28
2023-01-15T10:24:29.349Z,7.32
2023-01-15T10:29:45.321Z,6.07
2023-01-15T10:35:13.316Z,5.65
2023-01-15T10:40:21.767Z,5.53
2023-01-15T10:45:30.196Z,6.85
2023-01-15T10:50:32.729Z,5.35
2023-01-15T10:55:46.704Z,6.03
2023-01-15T11:00:55.115Z,7.43
2023-01-15T11:05:57.025Z,6.05
2023-01-15T11:11:14.834Z,6.95
2023-01-15T11:16:41.753Z,6.88
2023-01-15T11:21:44.996Z,7.40
2023-01-15T11:26:52.769Z,5.72
2023-01-15T11:31:54.616Z,7.38
2023-01-15T11:37:06.274Z,7.97
2023-01-15T11:42:35.204Z,6.32
2023-01-15T11:47:55.174Z,7.32
2023-01-15T11:52:57.426Z,7.85
2023-01-15T11:57:59.229Z,7.57
2023-01-15T12:03:12.960Z,6.35
2023-01-15T12:08:29.072Z,9.10
2023-01-15T12:14:01.127Z,8.70
2023-01-15T12:19:31.118Z,6.78
2023-01-15T12:24:47.742Z,9.25
2023-01-15T12:29:54.755Z,6.38
2023-01-15T12:35:02.409Z,8.85
2023-01-15T12:40:28.027Z,8.18
2023-01-15T12:45:41.475Z,5.65
2023-01-15T12:50:47.788Z,6.65
2023-01-15T12:56:07.270Z,8.23
2023-01-15T13:06:14.337Z,8.77
2023-01-15T13:11:16.024Z,9.68
2023-01-15T13:16:24.028Z,9.82
2023-01-15T13:21:28.764Z,6.83
2023-01-15T13:27:07.885Z,5.78
2023-01-15T13:32:23.653Z,6.40
2023-01-15T13:37:32.841Z,6.47
2023-01-15T13:42:37.642Z,9.57
2023-01-15T13:47:45.579Z,8.73
2023-01-15T13:52:47.301Z,8.13
2023-01-15T13:57:49.090Z,10.40
2023-01-15T14:02:59.078Z,7.25
2023-01-15T14:08:02.960Z,9.60
2023-01-15T14:13:49.119Z,6.53
2023-01-15T14:19:08.185Z,6.88
2023-01-15T14:29:47.106Z,6.90
2023-01-15T14:35:02.819Z,9.52
2023-01-15T14:40:06.282Z,8.65
2023-01-15T14:45:19.507Z,8.73
2023-01-15T14:50:24.668Z,10.32
2023-01-15T14:55:26.823Z,9.15
2023-01-15T15:00:37.013Z,12.30
2023-01-15T15:05:43.224Z,9.60
2023-01-15T15:10:49.943Z,11.98
2023-01-15T15:16:16.706Z,9.60
2023-01-15T15:21:24.902Z,9.00
2023-01-15T15:26:30.976Z,5.67
2023-01-15T15:31:37.473Z,7.25
2023-01-15T15:36:39.888Z,11.50
2023-01-15T15:42:03.499Z,8.57
2023-01-15T15:47:40.604Z,12.82
2023-01-15T15:52:44.642Z,12.65
2023-01-15T15:57:57.106Z,22.05
2023-01-15T16:03:05.277Z,45.90
2023-01-15T16:08:16.072Z,37.85
2023-01-15T16:13:32.057Z,13.27
2023-01-15T16:18:41.160Z,14.35
2023-01-15T16:23:45.975Z,12.93
2023-01-15T16:28:55.050Z,8.40
2023-01-15T16:33:58.919Z,11.10
2023-01-15T16:39:01.931Z,9.18
2023-01-15T16:44:06.523Z,9.20
2023-01-15T16:49:23.491Z,11.38
2023-01-15T16:54:31.116Z,9.23
2023-01-15T16:59:32.843Z,21.50
2023-01-15T17:04:36.617Z,13.85
2023-01-15T17:09:44.144Z,13.07
2023-01-15T17:14:45.799Z,14.90
2023-01-15T17:19:47.974Z,11.25
2023-01-15T17:24:52.031Z,15.60
2023-01-15T17:29:54.312Z,18.55
2023-01-15T17:34:56.114Z,15.95
2023-01-15T17:39:58.147Z,14.73
2023-01-15T17:44:59.983Z,11.82
2023-01-15T17:50:02.070Z,13.30
2023-01-15T17:55:23.039Z,10.15
2023-01-15T18:00:43.804Z,11.57
2023-01-15T18:05:48.752Z,11.25
2023-01-15T18:10:50.537Z,3.00
2023-01-15T18:15:52.863Z,2.70
2023-01-15T18:20:54.481Z,3.72
2023-01-15T18:25:57.316Z,2.42
2023-01-15T18:30:58.937Z,3.78
2023-01-15T18:36:12.802Z,2.67
2023-01-15T18:41:36.228Z,1.38
2023-01-15T18:46:43.941Z,2.92
2023-01-15T18:52:05.553Z,3.28
2023-01-15T18:57:07.182Z,3.35
2023-01-15T19:02:09.883Z,2.25
2023-01-15T19:07:11.792Z,1.40
2023-01-15T19:12:15.136Z,1.98
2023-01-15T19:17:38.837Z,1.40
2023-01-15T19:22:58.807Z,1.05
2023-01-15T19:28:00.621Z,7.43
2023-01-15T19:33:02.413Z,0.93
2023-01-15T19:38:08.138Z,1.83
2023-01-15T19:43:29.675Z,1.55
2023-01-15T19:48:52.476Z,1.58
2023-01-15T19:53:54.080Z,1.13
2023-01-15T19:58:56.080Z,1.02
2023-01-15T20:03:57.896Z,1.52
2023-01-15T20:08:59.556Z,1.30
2023-01-15T20:14:01.179Z,2.60
2023-01-15T20:19:03.087Z,0.93
2023-01-15T20:24:05.137Z,1.70
2023-01-15T20:29:06.744Z,1.10
2023-01-15T20:34:08.334Z,1.00
2023-01-15T20:39:10.142Z,1.00
2023-01-15T20:44:30.840Z,1.08
2023-01-15T20:49:32.658Z,0.77
2023-01-15T20:54:34.732Z,1.05
2023-01-15T20:59:36.331Z,0.85
2023-01-15T21:04:38.026Z,1.20
2023-01-15T21:09:39.657Z,0.85
2023-01-15T21:14:41.315Z,0.73
2023-01-15T21:19:42.997Z,0.80
2023-01-15T21:24:44.768Z,1.42
2023-01-15T21:29:48.105Z,0.63
2023-01-15T21:34:49.873Z,1.58
2023-01-15T21:39:51.495Z,1.13
2023-01-15T21:44:53.335Z,0.50
2023-01-15T21:49:55.126Z,0.73
2023-01-15T21:54:57.661Z,0.93
2023-01-15T21:59:59.522Z,1.88
2023-01-15T22:05:01.808Z,1.55
2023-01-15T22:10:03.821Z,1.10
2023-01-15T22:15:05.905Z,1.73
2023-01-15T22:20:08.567Z,2.95
2023-01-15T22:25:13.485Z,1.10
2023-01-15T22:30:16.630Z,1.45
2023-01-15T22:35:18.403Z,1.00
2023-01-15T22:40:20.215Z,1.20
2023-01-15T22:45:23.129Z,1.05
2023-01-15T22:50:24.933Z,0.75
2023-01-15T22:55:26.524Z,0.93
2023-01-15T23:00:28.430Z,2.38
2023-01-15T23:05:30.173Z,1.00
2023-01-15T23:10:31.853Z,0.68
2023-01-15T23:15:33.695Z,0.75
2023-01-15T23:20:35.344Z,1.35
2023-01-15T23:25:36.938Z,0.68
2023-01-15T23:30:38.766Z,1.23
2023-01-15T23:35:40.384Z,0.63
2023-01-15T23:40:42.683Z,0.47
2023-01-15T23:46:02.933Z,0.47
2023-01-15T23:51:04.684Z,0.63
2023-01-15T23:56:07.101Z,1.23
